createdAt,value
2017-06-28T00:00:21.775Z,21.29
2017-06-28T00:02:49.579Z,21.28
2017-06-28T00:05:17.436Z,21.27
2017-06-28T00:07:44.914Z,21.23
2017-06-28T00:10:12.498Z,21.21
2017-06-28T00:12:39.929Z,21.19
2017-06-28T00:15:09.283Z,21.15
2017-06-28T00:17:36.818Z,21.16
2017-06-28T00:20:05.294Z,21.10
2017-06-28T00:22:32.718Z,21.07
2017-06-28T00:25:00.162Z,21.04
2017-06-28T00:27:28.073Z,21.02
2017-06-28T00:29:55.497Z,21.06
2017-06-28T00:32:23.082Z,21.08
2017-06-28T00:34:50.503Z,21.09
2017-06-28T00:37:17.939Z,21.02
2017-06-28T00:39:46.079Z,21.05
2017-06-28T00:42:16.091Z,21.09
2017-06-28T00:44:43.547Z,21.07
2017-06-28T00:47:11.180Z,21.03
2017-06-28T00:49:40.398Z,21.04
2017-06-28T00:52:07.814Z,21.10
2017-06-28T00:54:35.388Z,21.14
2017-06-28T00:57:02.821Z,21.19
2017-06-28T00:59:30.271Z,21.28
2017-06-28T01:01:57.981Z,21.30
2017-06-28T01:04:25.403Z,21.32
2017-06-28T01:06:55.231Z,21.31
2017-06-28T01:09:22.698Z,21.37
2017-06-28T01:11:50.620Z,21.35
2017-06-28T01:14:19.698Z,21.38
2017-06-28T01:16:47.520Z,21.37
2017-06-28T01:19:14.947Z,21.37
2017-06-28T01:21:42.376Z,21.34
2017-06-28T01:24:09.932Z,21.31
2017-06-28T01:26:37.703Z,21.27
2017-06-28T01:29:06.499Z,21.28
2017-06-28T01:31:36.978Z,21.19
2017-06-28T01:34:08.434Z,21.14
2017-06-28T01:36:35.949Z,21.12
2017-06-28T01:39:04.051Z,21.10
2017-06-28T01:41:31.521Z,21.13
2017-06-28T01:44:06.982Z,21.17
2017-06-28T01:46:35.026Z,21.21
2017-06-28T01:49:02.485Z,21.29
2017-06-28T01:51:32.554Z,21.38
2017-06-28T01:54:00.106Z,21.46
2017-06-28T01:56:27.872Z,21.51
2017-06-28T01:58:55.353Z,21.48
2017-06-28T02:01:22.816Z,21.47
2017-06-28T02:03:50.806Z,21.44
2017-06-28T02:06:18.551Z,21.38
2017-06-28T02:08:51.263Z,21.42
2017-06-28T02:11:18.692Z,21.40
2017-06-28T02:13:46.544Z,21.40
2017-06-28T02:16:13.968Z,21.43
2017-06-28T02:18:41.971Z,21.43
2017-06-28T02:21:09.853Z,21.42
2017-06-28T02:26:09.753Z,21.45
2017-06-28T02:28:37.551Z,21.45
2017-06-28T02:31:07.470Z,21.44
2017-06-28T02:33:34.998Z,21.46
2017-06-28T02:36:04.747Z,21.43
2017-06-28T02:38:32.171Z,21.51
2017-06-28T02:41:00.350Z,21.48
2017-06-28T02:43:28.283Z,21.49
2017-06-28T02:45:55.715Z,21.49
2017-06-28T02:48:23.479Z,21.49
2017-06-28T02:50:50.920Z,21.50
2017-06-28T02:53:18.377Z,21.50
2017-06-28T02:55:46.712Z,21.46
2017-06-28T02:58:14.498Z,21.50
2017-06-28T03:00:45.559Z,21.54
2017-06-28T03:03:13.455Z,21.54
2017-06-28T03:05:40.890Z,21.55
2017-06-28T03:08:08.807Z,21.53
2017-06-28T03:10:36.671Z,21.59
2017-06-28T03:13:04.262Z,21.60
2017-06-28T03:15:33.144Z,21.58
2017-06-28T03:18:02.024Z,21.58
2017-06-28T03:20:33.061Z,21.59
2017-06-28T03:23:00.884Z,21.62
2017-06-28T03:25:28.996Z,21.64
2017-06-28T03:27:56.447Z,21.58
2017-06-28T03:30:24.001Z,21.57
2017-06-28T03:32:51.444Z,21.56
2017-06-28T03:35:20.649Z,21.47
2017-06-28T03:37:48.356Z,21.43
2017-06-28T03:40:16.652Z,21.38
2017-06-28T03:42:47.654Z,21.34
2017-06-28T03:45:15.128Z,21.25
2017-06-28T03:47:42.803Z,21.22
2017-06-28T03:50:11.146Z,21.21
2017-06-28T03:52:38.576Z,21.16
2017-06-28T03:55:06.234Z,21.10
2017-06-28T03:57:33.780Z,21.11
2017-06-28T04:00:01.290Z,21.08
2017-06-28T04:02:35.286Z,21.01
2017-06-28T04:05:03.458Z,20.99
2017-06-28T04:07:38.305Z,21.02
2017-06-28T04:10:06.107Z,21.00
2017-06-28T04:12:33.547Z,21.02
2017-06-28T04:15:01.311Z,20.97
2017-06-28T04:17:29.780Z,20.96
2017-06-28T04:19:57.203Z,20.99
2017-06-28T04:22:26.841Z,20.92
2017-06-28T04:24:54.316Z,20.95
2017-06-28T04:27:21.751Z,20.93
2017-06-28T04:29:49.283Z,20.94
2017-06-28T04:32:17.248Z,20.92
2017-06-28T04:34:45.342Z,20.88
2017-06-28T04:37:12.953Z,20.85
2017-06-28T04:39:41.087Z,20.77
2017-06-28T04:42:09.021Z,20.70
2017-06-28T04:44:36.829Z,20.65
2017-06-28T04:47:04.324Z,20.62
2017-06-28T04:49:31.742Z,20.57
2017-06-28T04:51:59.164Z,20.50
2017-06-28T04:54:26.930Z,20.47
2017-06-28T04:56:55.909Z,20.46
2017-06-28T04:59:24.719Z,20.43
2017-06-28T05:01:52.169Z,20.39
2017-06-28T05:04:19.584Z,20.34
2017-06-28T05:06:47.005Z,20.24
2017-06-28T05:09:15.467Z,20.28
2017-06-28T05:11:42.881Z,20.23
2017-06-28T05:14:11.348Z,20.26
2017-06-28T05:16:46.539Z,20.25
2017-06-28T05:19:14.287Z,20.29
2017-06-28T05:21:42.389Z,20.33
2017-06-28T05:24:12.889Z,20.33
2017-06-28T05:26:40.631Z,20.30
2017-06-28T05:29:08.578Z,20.35
2017-06-28T05:31:36.129Z,20.34
2017-06-28T05:34:03.556Z,20.36
2017-06-28T05:36:31.213Z,20.41
2017-06-28T05:38:58.744Z,20.46
2017-06-28T05:41:26.424Z,20.48
2017-06-28T05:43:53.838Z,20.49
2017-06-28T05:46:22.991Z,20.53
2017-06-28T05:48:50.539Z,20.58
2017-06-28T05:51:17.998Z,20.66
2017-06-28T05:53:45.446Z,20.65
2017-06-28T05:56:13.452Z,20.69
2017-06-28T05:58:44.623Z,20.74
2017-06-28T06:01:12.071Z,20.78
2017-06-28T06:03:39.490Z,20.88
2017-06-28T06:06:07.348Z,20.97
2017-06-28T06:08:35.209Z,21.07
2017-06-28T06:11:02.622Z,21.14
2017-06-28T06:13:30.064Z,21.24
2017-06-28T06:15:57.492Z,21.32
2017-06-28T06:18:25.660Z,21.40
2017-06-28T06:20:53.659Z,21.49
2017-06-28T06:23:21.787Z,21.58
2017-06-28T06:25:49.213Z,21.68
2017-06-28T06:28:16.691Z,21.81
2017-06-28T06:30:46.422Z,21.88
2017-06-28T06:33:17.862Z,22.01
2017-06-28T06:35:46.113Z,22.08
2017-06-28T06:38:13.857Z,22.12
2017-06-28T06:40:41.626Z,22.08
2017-06-28T06:43:09.042Z,21.99
2017-06-28T06:45:38.914Z,21.83
2017-06-28T06:48:06.343Z,21.72
2017-06-28T06:50:40.143Z,21.62
2017-06-28T06:53:07.696Z,21.51
2017-06-28T06:55:35.554Z,21.41
2017-06-28T06:58:02.973Z,21.37
2017-06-28T07:00:30.654Z,21.33
2017-06-28T07:02:58.643Z,21.31
2017-06-28T07:05:26.196Z,21.29
2017-06-28T07:07:53.763Z,21.26
2017-06-28T07:10:21.194Z,21.17
2017-06-28T07:12:48.612Z,21.23
2017-06-28T07:15:16.107Z,21.25
2017-06-28T07:17:46.646Z,21.28
2017-06-28T07:20:14.788Z,21.26
2017-06-28T07:22:42.766Z,21.25
2017-06-28T07:25:10.526Z,21.27
2017-06-28T07:27:37.955Z,21.31
2017-06-28T07:30:08.042Z,21.31
2017-06-28T07:32:35.460Z,21.33
2017-06-28T07:35:03.991Z,21.38
2017-06-28T07:37:31.516Z,21.38
2017-06-28T07:39:58.950Z,21.38
2017-06-28T07:42:26.833Z,21.37
2017-06-28T07:44:54.731Z,21.34
2017-06-28T07:47:25.341Z,21.32
2017-06-28T07:49:52.750Z,21.34
2017-06-28T07:52:20.293Z,21.32
2017-06-28T07:54:47.716Z,21.34
2017-06-28T07:57:15.130Z,21.32
2017-06-28T07:59:49.819Z,21.37
2017-06-28T08:02:17.234Z,21.35
2017-06-28T08:04:45.271Z,21.37
2017-06-28T08:07:13.067Z,21.30
2017-06-28T08:09:41.055Z,21.32
2017-06-28T08:12:10.551Z,21.30
2017-06-28T08:14:39.916Z,21.25
2017-06-28T08:17:22.414Z,21.24
2017-06-28T08:19:52.554Z,21.21
2017-06-28T08:22:20.370Z,21.19
2017-06-28T08:24:48.272Z,21.15
2017-06-28T08:27:16.382Z,21.22
2017-06-28T08:29:46.274Z,21.26
2017-06-28T08:32:14.153Z,21.26
2017-06-28T08:34:42.037Z,21.33
2017-06-28T08:37:09.816Z,21.36
2017-06-28T08:39:37.239Z,21.46
2017-06-28T08:42:05.112Z,21.54
2017-06-28T08:44:33.119Z,21.59
2017-06-28T08:47:00.550Z,21.64
2017-06-28T08:49:28.367Z,21.71
2017-06-28T08:51:55.791Z,21.80
2017-06-28T08:54:23.548Z,21.86
2017-06-28T08:56:52.875Z,22.03
2017-06-28T08:59:20.382Z,22.15
2017-06-28T09:01:47.795Z,22.36
2017-06-28T09:04:15.921Z,22.59
2017-06-28T09:06:43.785Z,22.81
2017-06-28T09:09:11.204Z,23.00
2017-06-28T09:11:38.776Z,23.31
2017-06-28T09:14:06.849Z,23.57
2017-06-28T09:16:35.007Z,23.82
2017-06-28T09:19:03.135Z,24.03
2017-06-28T09:21:30.547Z,24.25
2017-06-28T09:23:57.949Z,24.05
2017-06-28T09:26:25.442Z,24.22
2017-06-28T09:28:53.320Z,24.39
2017-06-28T09:31:20.734Z,24.44
2017-06-28T09:33:48.251Z,24.55
2017-06-28T09:36:15.663Z,24.46
2017-06-28T09:38:43.070Z,24.39
2017-06-28T09:41:11.028Z,24.23
2017-06-28T09:43:39.254Z,24.12
2017-06-28T09:46:07.003Z,23.84
2017-06-28T09:48:34.534Z,23.93
2017-06-28T09:51:08.550Z,23.93
2017-06-28T09:53:35.966Z,23.67
2017-06-28T09:56:03.947Z,23.64
2017-06-28T09:58:31.361Z,23.55
2017-06-28T10:00:58.806Z,23.42
2017-06-28T10:03:26.218Z,23.40
2017-06-28T10:05:54.486Z,23.43
2017-06-28T10:08:22.612Z,23.51
2017-06-28T10:10:50.442Z,23.47
2017-06-28T10:13:18.694Z,23.67
2017-06-28T10:15:46.231Z,23.85
2017-06-28T10:18:14.095Z,24.15
2017-06-28T10:20:41.521Z,24.27
2017-06-28T10:23:12.468Z,24.32
2017-06-28T10:25:40.214Z,24.31
2017-06-28T10:28:08.790Z,24.23
2017-06-28T10:30:36.430Z,24.33
2017-06-28T10:33:06.423Z,24.48
2017-06-28T10:35:34.163Z,24.66
2017-06-28T10:38:01.899Z,24.64
2017-06-28T10:40:30.004Z,24.73
2017-06-28T10:42:57.442Z,24.96
2017-06-28T10:45:27.290Z,25.00
2017-06-28T10:47:55.049Z,24.81
2017-06-28T10:50:22.494Z,24.91
2017-06-28T10:52:51.298Z,24.95
2017-06-28T10:55:18.715Z,24.77
2017-06-28T10:57:52.891Z,24.92
2017-06-28T11:00:22.680Z,24.84
2017-06-28T11:02:50.110Z,25.07
2017-06-28T11:05:18.186Z,25.32
2017-06-28T11:07:45.601Z,25.24
2017-06-28T11:10:21.543Z,25.18
2017-06-28T11:12:48.954Z,25.29
2017-06-28T11:15:19.710Z,25.18
2017-06-28T11:17:47.174Z,25.24
2017-06-28T11:20:14.594Z,25.14
2017-06-28T11:22:42.019Z,25.19
2017-06-28T11:25:10.942Z,25.31
2017-06-28T11:27:38.373Z,25.16
2017-06-28T11:30:06.011Z,25.03
2017-06-28T11:32:33.827Z,24.97
2017-06-28T11:35:01.256Z,24.75
2017-06-28T11:37:30.108Z,24.33
2017-06-28T11:39:58.124Z,24.38
2017-06-28T11:42:27.507Z,24.49
2017-06-28T11:44:54.929Z,24.41
2017-06-28T11:47:22.486Z,24.73
2017-06-28T11:49:49.911Z,24.76
2017-06-28T11:52:17.699Z,24.61
2017-06-28T11:54:45.462Z,24.56
2017-06-28T11:57:12.884Z,24.39
2017-06-28T11:59:40.317Z,24.33
2017-06-28T12:02:07.785Z,24.16
2017-06-28T12:04:35.261Z,23.99
2017-06-28T12:07:02.675Z,23.86
2017-06-28T12:09:30.488Z,23.88
2017-06-28T12:11:59.084Z,23.98
2017-06-28T12:14:27.107Z,23.99
2017-06-28T12:16:54.732Z,23.70
2017-06-28T12:19:22.167Z,23.11
2017-06-28T12:21:49.590Z,22.50
2017-06-28T12:24:17.124Z,21.76
2017-06-28T12:26:45.194Z,21.17
2017-06-28T12:29:15.025Z,20.83
2017-06-28T12:31:43.887Z,20.67
2017-06-28T12:34:11.344Z,20.46
2017-06-28T12:36:39.150Z,20.43
2017-06-28T12:39:06.615Z,20.34
2017-06-28T12:41:42.716Z,20.32
2017-06-28T12:44:10.150Z,20.25
2017-06-28T12:46:37.567Z,20.08
2017-06-28T12:49:04.996Z,20.02
2017-06-28T12:51:32.659Z,20.14
2017-06-28T12:54:00.551Z,20.16
2017-06-28T12:56:28.457Z,20.16
2017-06-28T12:58:56.482Z,20.21
2017-06-28T13:01:24.243Z,20.33
2017-06-28T13:03:51.670Z,20.40
2017-06-28T13:06:19.274Z,20.59
2017-06-28T13:08:46.695Z,20.89
2017-06-28T13:11:15.958Z,21.20
2017-06-28T13:13:44.029Z,21.55
2017-06-28T13:16:12.291Z,21.81
2017-06-28T13:18:39.702Z,22.17
2017-06-28T13:21:07.378Z,22.42
2017-06-28T13:23:35.014Z,22.62
2017-06-28T13:26:04.780Z,22.91
2017-06-28T13:28:32.218Z,23.02
2017-06-28T13:30:59.622Z,22.98
2017-06-28T13:33:27.427Z,23.19
2017-06-28T13:35:59.438Z,23.49
2017-06-28T13:38:27.195Z,23.62
2017-06-28T13:40:54.643Z,23.61
2017-06-28T13:43:22.151Z,23.49
2017-06-28T13:45:49.778Z,23.68
2017-06-28T13:48:17.427Z,23.69
2017-06-28T13:50:45.006Z,23.94
2017-06-28T13:53:12.415Z,24.06
2017-06-28T13:55:39.863Z,24.32
2017-06-28T13:58:07.346Z,24.31
2017-06-28T14:00:34.749Z,24.55
2017-06-28T14:03:02.867Z,24.92
2017-06-28T14:05:30.403Z,25.08
2017-06-28T14:07:57.807Z,24.99
2017-06-28T14:10:25.556Z,25.31
2017-06-28T14:12:54.046Z,25.44
2017-06-28T14:15:21.840Z,25.59
2017-06-28T14:17:49.263Z,25.51
2017-06-28T14:20:16.796Z,25.38
2017-06-28T14:22:44.211Z,25.21
2017-06-28T14:25:12.807Z,25.28
2017-06-28T14:27:41.699Z,25.03
2017-06-28T14:30:09.128Z,24.72
2017-06-28T14:32:36.538Z,24.38
2017-06-28T14:35:04.962Z,24.06
2017-06-28T14:37:32.375Z,23.88
2017-06-28T14:39:59.924Z,23.57
2017-06-28T14:42:27.372Z,23.35
2017-06-28T14:44:54.866Z,22.81
2017-06-28T14:47:22.659Z,21.80
2017-06-28T14:49:50.191Z,21.48
2017-06-28T14:52:17.611Z,21.22
2017-06-28T14:54:45.039Z,21.18
2017-06-28T14:57:13.579Z,21.23
2017-06-28T14:59:41.077Z,21.28
2017-06-28T15:02:08.485Z,21.42
2017-06-28T15:04:35.914Z,21.62
2017-06-28T15:07:04.331Z,21.85
2017-06-28T15:09:31.792Z,22.08
2017-06-28T15:11:59.207Z,22.27
2017-06-28T15:14:26.639Z,22.30
2017-06-28T15:16:54.193Z,22.23
2017-06-28T15:19:23.234Z,22.23
2017-06-28T15:21:51.238Z,22.35
2017-06-28T15:24:20.528Z,22.43
2017-06-28T15:26:47.940Z,22.45
2017-06-28T15:29:15.379Z,22.38
2017-06-28T15:31:42.807Z,22.20
2017-06-28T15:34:10.696Z,22.32
2017-06-28T15:36:39.006Z,22.38
2017-06-28T15:39:06.440Z,22.59
2017-06-28T15:41:34.247Z,22.69
2017-06-28T15:44:01.674Z,22.74
2017-06-28T15:46:29.928Z,22.67
2017-06-28T15:48:57.354Z,22.56
2017-06-28T15:51:27.219Z,22.54
2017-06-28T15:54:07.116Z,22.44
2017-06-28T15:56:46.966Z,22.38
2017-06-28T15:59:14.921Z,22.33
2017-06-28T16:01:42.727Z,22.15
2017-06-28T16:04:10.152Z,22.19
2017-06-28T16:06:37.577Z,22.35
2017-06-28T16:09:05.117Z,22.31
2017-06-28T16:11:33.726Z,22.57
2017-06-28T16:14:01.537Z,22.80
2017-06-28T16:16:28.961Z,22.80
2017-06-28T16:18:56.383Z,22.74
2017-06-28T16:21:23.803Z,22.78
2017-06-28T16:23:51.346Z,22.59
2017-06-28T16:26:18.781Z,22.57
2017-06-28T16:28:47.291Z,22.53
2017-06-28T16:31:14.718Z,22.32
2017-06-28T16:33:42.508Z,22.12
2017-06-28T16:36:10.026Z,22.16
2017-06-28T16:38:37.716Z,22.18
2017-06-28T16:41:05.141Z,22.30
2017-06-28T16:43:33.666Z,22.31
2017-06-28T16:46:03.415Z,22.39
2017-06-28T16:48:31.780Z,22.52
2017-06-28T16:50:59.567Z,22.62
2017-06-28T16:53:26.997Z,22.71
2017-06-28T16:55:55.067Z,22.79
2017-06-28T16:58:23.739Z,22.79
2017-06-28T17:00:51.186Z,22.78
2017-06-28T17:03:19.075Z,22.86
2017-06-28T17:05:46.532Z,22.85
2017-06-28T17:08:14.015Z,22.86
2017-06-28T17:10:41.431Z,22.92
2017-06-28T17:13:08.879Z,23.01
2017-06-28T17:15:36.298Z,22.91
2017-06-28T17:18:04.430Z,22.98
2017-06-28T17:20:32.475Z,22.94
2017-06-28T17:22:59.918Z,22.82
2017-06-28T17:25:27.761Z,22.77
2017-06-28T17:27:55.171Z,22.76
2017-06-28T17:30:22.578Z,22.78
2017-06-28T17:32:50.363Z,22.77
2017-06-28T17:35:17.766Z,22.90
2017-06-28T17:37:45.203Z,23.00
2017-06-28T17:40:12.611Z,23.10
2017-06-28T17:42:46.825Z,23.24
2017-06-28T17:45:14.234Z,23.30
2017-06-28T17:47:41.668Z,23.34
2017-06-28T17:50:09.091Z,23.38
2017-06-28T17:52:37.048Z,23.55
2017-06-28T17:55:04.585Z,23.73
2017-06-28T17:57:32.000Z,23.85
2017-06-28T17:59:59.860Z,24.01
2017-06-28T18:02:27.297Z,24.06
2017-06-28T18:04:54.702Z,24.07
2017-06-28T18:07:22.135Z,24.03
2017-06-28T18:09:50.454Z,23.93
2017-06-28T18:12:17.875Z,23.77
2017-06-28T18:14:45.427Z,23.60
2017-06-28T18:17:13.287Z,23.50
2017-06-28T18:19:41.844Z,23.43
2017-06-28T18:22:09.241Z,23.37
2017-06-28T18:24:37.627Z,23.24
2017-06-28T18:27:05.416Z,23.24
2017-06-28T18:29:32.806Z,23.18
2017-06-28T18:32:00.314Z,23.24
2017-06-28T18:34:27.731Z,23.29
2017-06-28T18:36:55.134Z,23.28
2017-06-28T18:39:22.558Z,23.25
2017-06-28T18:41:50.755Z,23.08
2017-06-28T18:44:18.187Z,23.11
2017-06-28T18:46:46.117Z,23.10
2017-06-28T18:49:13.510Z,23.08
2017-06-28T18:51:41.665Z,23.04
2017-06-28T18:54:09.890Z,22.99
2017-06-28T18:56:37.686Z,22.90
2017-06-28T18:59:05.421Z,22.84
2017-06-28T19:01:32.842Z,22.75
2017-06-28T19:04:01.270Z,22.60
2017-06-28T19:06:28.682Z,22.45
2017-06-28T19:08:56.448Z,22.32
2017-06-28T19:11:23.887Z,22.19
2017-06-28T19:13:54.023Z,22.05
2017-06-28T19:16:21.515Z,21.94
2017-06-28T19:18:50.086Z,21.88
2017-06-28T19:21:17.494Z,21.81
2017-06-28T19:23:44.940Z,21.73
2017-06-28T19:26:12.542Z,21.64
2017-06-28T19:28:39.955Z,21.62
2017-06-28T19:31:07.415Z,21.54
2017-06-28T19:33:35.279Z,21.45
2017-06-28T19:36:05.612Z,21.39
2017-06-28T19:38:33.039Z,21.31
2017-06-28T19:41:00.459Z,21.23
2017-06-28T19:43:28.086Z,21.20
2017-06-28T19:45:55.510Z,21.08
2017-06-28T19:48:22.927Z,21.03
2017-06-28T19:50:50.351Z,20.97
2017-06-28T19:53:17.770Z,20.95
2017-06-28T19:55:45.306Z,20.93
2017-06-28T19:58:14.346Z,20.88
2017-06-28T20:00:41.767Z,20.82
2017-06-28T20:03:09.198Z,20.80
2017-06-28T20:05:37.043Z,20.74
2017-06-28T20:08:04.602Z,20.69
2017-06-28T20:10:32.047Z,20.61
2017-06-28T20:12:59.682Z,20.58
2017-06-28T20:15:27.247Z,20.50
2017-06-28T20:17:54.798Z,20.43
2017-06-28T20:20:22.467Z,20.39
2017-06-28T20:22:49.887Z,20.30
2017-06-28T20:25:17.430Z,20.25
2017-06-28T20:27:45.463Z,20.21
2017-06-28T20:30:15.355Z,20.17
2017-06-28T20:32:43.479Z,20.12
2017-06-28T20:35:11.224Z,20.08
2017-06-28T20:37:38.663Z,20.07
2017-06-28T20:40:06.092Z,20.12
2017-06-28T20:42:34.354Z,20.08
2017-06-28T20:45:01.971Z,20.11
2017-06-28T20:47:29.402Z,20.06
2017-06-28T20:49:59.302Z,20.02
2017-06-28T20:52:26.722Z,20.00
2017-06-28T20:54:54.771Z,19.98
2017-06-28T20:57:22.464Z,19.95
2017-06-28T20:59:51.016Z,19.99
2017-06-28T21:02:18.775Z,19.97
2017-06-28T21:04:46.212Z,19.98
2017-06-28T21:07:13.996Z,19.95
2017-06-28T21:09:41.564Z,19.94
2017-06-28T21:12:09.586Z,20.03
2017-06-28T21:14:37.743Z,20.01
2017-06-28T21:17:05.431Z,20.02
2017-06-28T21:19:33.517Z,20.04
2017-06-28T21:22:01.747Z,20.02
2017-06-28T21:24:29.170Z,19.92
2017-06-28T21:26:56.586Z,19.88
2017-06-28T21:29:26.599Z,19.86
2017-06-28T21:31:54.015Z,19.81
2017-06-28T21:34:21.552Z,19.78
2017-06-28T21:36:48.966Z,19.73
2017-06-28T21:39:16.718Z,19.70
2017-06-28T21:41:44.152Z,19.72
2017-06-28T21:44:11.585Z,19.72
2017-06-28T21:46:39.402Z,19.72
2017-06-28T21:49:07.361Z,19.74
2017-06-28T21:51:34.784Z,19.70
2017-06-28T21:54:02.227Z,19.63
2017-06-28T21:56:29.982Z,19.58
2017-06-28T21:58:57.778Z,19.58
2017-06-28T22:01:25.535Z,19.53
2017-06-28T22:03:52.950Z,19.48
2017-06-28T22:06:20.379Z,19.44
2017-06-28T22:08:48.130Z,19.37
2017-06-28T22:11:15.566Z,19.32
2017-06-28T22:13:42.982Z,19.30
2017-06-28T22:16:10.415Z,19.28
2017-06-28T22:18:50.238Z,19.28
2017-06-28T22:21:17.679Z,19.26
2017-06-28T22:23:45.866Z,19.21
2017-06-28T22:26:13.320Z,19.19
2017-06-28T22:28:40.804Z,19.19
2017-06-28T22:31:08.610Z,19.23
2017-06-28T22:33:36.268Z,19.23
2017-06-28T22:36:04.134Z,19.20
2017-06-28T22:38:31.947Z,19.17
2017-06-28T22:40:59.999Z,19.15
2017-06-28T22:43:27.911Z,19.10
2017-06-28T22:45:55.322Z,19.02
2017-06-28T22:48:22.757Z,19.03
2017-06-28T22:50:50.858Z,19.00
2017-06-28T22:53:18.572Z,18.99
2017-06-28T22:55:45.990Z,18.96
2017-06-28T22:58:13.414Z,18.96
2017-06-28T23:00:41.286Z,18.96
2017-06-28T23:03:11.128Z,18.92
2017-06-28T23:05:44.650Z,18.90
2017-06-28T23:08:12.065Z,18.86
2017-06-28T23:10:39.491Z,18.85
2017-06-28T23:13:07.359Z,18.82
2017-06-28T23:15:34.777Z,18.82
2017-06-28T23:18:02.217Z,18.82
2017-06-28T23:20:29.631Z,18.78
2017-06-28T23:22:57.051Z,18.79
2017-06-28T23:25:24.960Z,18.81
2017-06-28T23:27:52.838Z,18.81
2017-06-28T23:30:20.294Z,18.77
2017-06-28T23:32:50.052Z,18.78
2017-06-28T23:35:17.459Z,18.80
2017-06-28T23:37:44.892Z,18.85
2017-06-28T23:40:12.308Z,18.87
2017-06-28T23:42:41.091Z,18.82
2017-06-28T23:45:08.507Z,18.85
2017-06-28T23:47:36.381Z,18.82
2017-06-28T23:50:03.807Z,18.77
2017-06-28T23:52:31.231Z,18.72
2017-06-28T23:54:58.788Z,18.70
2017-06-28T23:57:26.603Z,18.67
2017-06-28T23:59:54.754Z,18.63
